EIN244H EIDW-EGJJ
Flight info
| Callsign | EIN244H |
|---|---|
| Flight time | 0h 58m |
| Altitude | 23000 |
| Route | PESIT2J PESIT DCT BAKUR N24 ADHAV/N0424F350 DCT ABBEW/N0356F230 N90 ENHEL N862 SKERY |
| Aircraft | A20N/M-SDE2E3FGHIRWXY/LB1 |
Departure
| Time | 2026-05-07 20:07 |
|---|---|
| Airport | Dublin Airport (EIDW) |
Arrival
| Time | 2026-05-07 21:05 |
|---|---|
| Airport | Jersey Airport (EGJJ) |
| Time | Latitude | Longitude | Altitude | Speed | Heading |
|---|---|---|---|---|---|
| 2026-05-07 19:20 | 53.42468 | -6.24345 | 251 ft | 0 kts | 135° |
| 2026-05-07 19:45 | 53.42479 | -6.24362 | 251 ft | 2 kts | 136° |
| 2026-05-07 19:45 | 53.42490 | -6.24380 | 251 ft | 2 kts | 135° |
| 2026-05-07 19:46 | 53.42503 | -6.24396 | 251 ft | 2 kts | 159° |
| 2026-05-07 19:46 | 53.42519 | -6.24402 | 251 ft | 2 kts | 178° |
| 2026-05-07 19:46 | 53.42535 | -6.24400 | 251 ft | 2 kts | 197° |
| 2026-05-07 19:46 | 53.42542 | -6.24395 | 251 ft | 1 kts | 207° |
| 2026-05-07 19:47 | 53.42545 | -6.24393 | 251 ft | 0 kts | 205° |
| 2026-05-07 19:53 | 53.42551 | -6.24388 | 250 ft | 0 kts | 205° |
| 2026-05-07 19:58 | 53.42547 | -6.24392 | 250 ft | 1 kts | 205° |
| 2026-05-07 19:58 | 53.42532 | -6.24404 | 250 ft | 3 kts | 207° |
| 2026-05-07 19:58 | 53.42506 | -6.24428 | 250 ft | 4 kts | 213° |
| 2026-05-07 19:58 | 53.42477 | -6.24472 | 250 ft | 6 kts | 230° |
| 2026-05-07 19:59 | 53.42452 | -6.24539 | 250 ft | 7 kts | 243° |
| 2026-05-07 19:59 | 53.42426 | -6.24623 | 250 ft | 8 kts | 242° |
| 2026-05-07 19:59 | 53.42392 | -6.24718 | 250 ft | 9 kts | 231° |
| 2026-05-07 19:59 | 53.42361 | -6.24823 | 250 ft | 10 kts | 281° |
| 2026-05-07 20:00 | 53.42420 | -6.24903 | 250 ft | 11 kts | 337° |
| 2026-05-07 20:00 | 53.42500 | -6.24960 | 250 ft | 12 kts | 337° |
| 2026-05-07 20:00 | 53.42585 | -6.25022 | 250 ft | 13 kts | 336° |
| 2026-05-07 20:00 | 53.42677 | -6.25089 | 250 ft | 13 kts | 335° |
| 2026-05-07 20:01 | 53.42735 | -6.25193 | 250 ft | 12 kts | 321° |
| 2026-05-07 20:01 | 53.42820 | -6.25261 | 250 ft | 13 kts | 337° |
| 2026-05-07 20:01 | 53.42912 | -6.25327 | 250 ft | 14 kts | 337° |
| 2026-05-07 20:01 | 53.43009 | -6.25398 | 250 ft | 15 kts | 336° |
| 2026-05-07 20:02 | 53.43110 | -6.25471 | 250 ft | 16 kts | 336° |
| 2026-05-07 20:02 | 53.43214 | -6.25547 | 250 ft | 16 kts | 337° |
| 2026-05-07 20:02 | 53.43323 | -6.25625 | 250 ft | 16 kts | 337° |
| 2026-05-07 20:02 | 53.43404 | -6.25587 | 250 ft | 12 kts | 78° |
| 2026-05-07 20:03 | 53.43400 | -6.25430 | 250 ft | 13 kts | 96° |
| 2026-05-07 20:03 | 53.43391 | -6.25261 | 250 ft | 14 kts | 95° |
| 2026-05-07 20:03 | 53.43381 | -6.25080 | 250 ft | 15 kts | 95° |
| 2026-05-07 20:03 | 53.43372 | -6.24908 | 250 ft | 11 kts | 94° |
| 2026-05-07 20:04 | 53.43366 | -6.24789 | 250 ft | 3 kts | 96° |
| 2026-05-07 20:04 | 53.43366 | -6.24786 | 250 ft | 0 kts | 96° |
| 2026-05-07 20:04 | 53.43366 | -6.24783 | 250 ft | 0 kts | 96° |
| 2026-05-07 20:04 | 53.43364 | -6.24759 | 250 ft | 3 kts | 96° |
| 2026-05-07 20:05 | 53.43361 | -6.24704 | 250 ft | 5 kts | 96° |
| 2026-05-07 20:05 | 53.43360 | -6.24614 | 250 ft | 8 kts | 77° |
| 2026-05-07 20:05 | 53.43414 | -6.24557 | 250 ft | 11 kts | 6° |
| 2026-05-07 20:05 | 53.43493 | -6.24545 | 250 ft | 8 kts | 4° |
| 2026-05-07 20:06 | 53.43526 | -6.24599 | 250 ft | 0 kts | 274° |
| 2026-05-07 20:06 | 53.43526 | -6.24600 | 250 ft | 2 kts | 274° |
| 2026-05-07 20:06 | 53.43552 | -6.25093 | 250 ft | 82 kts | 275° |
| 2026-05-07 20:06 | 53.43629 | -6.26442 | 252 ft | 146 kts | 277° |
| 2026-05-07 20:07 | 53.43763 | -6.28254 | 680 ft | 162 kts | 275° |
| 2026-05-07 20:07 | 53.44013 | -6.30050 | 1445 ft | 163 kts | 296° |
| 2026-05-07 20:07 | 53.44727 | -6.31494 | 2231 ft | 166 kts | 310° |
| 2026-05-07 20:07 | 53.45490 | -6.33010 | 2779 ft | 180 kts | 305° |
| 2026-05-07 20:08 | 53.46250 | -6.34766 | 3319 ft | 195 kts | 295° |
| 2026-05-07 20:08 | 53.46405 | -6.37043 | 3771 ft | 212 kts | 251° |
| 2026-05-07 20:08 | 53.45479 | -6.39077 | 4295 ft | 233 kts | 211° |
| 2026-05-07 20:08 | 53.43876 | -6.39696 | 4886 ft | 255 kts | 175° |
| 2026-05-07 20:09 | 53.42155 | -6.38739 | 5654 ft | 269 kts | 156° |
| 2026-05-07 20:09 | 53.40473 | -6.37347 | 6606 ft | 274 kts | 156° |
| 2026-05-07 20:09 | 53.38756 | -6.35984 | 7581 ft | 277 kts | 158° |
| 2026-05-07 20:10 | 53.35212 | -6.33463 | 9489 ft | 282 kts | 160° |
| 2026-05-07 20:10 | 53.33335 | -6.32225 | 10435 ft | 285 kts | 161° |
| 2026-05-07 20:10 | 53.31453 | -6.31016 | 11012 ft | 300 kts | 161° |
| 2026-05-07 20:10 | 53.29450 | -6.29755 | 11466 ft | 318 kts | 161° |
| 2026-05-07 20:11 | 53.27330 | -6.28432 | 12046 ft | 331 kts | 162° |
| 2026-05-07 20:11 | 53.25178 | -6.27095 | 12851 ft | 335 kts | 162° |
| 2026-05-07 20:11 | 53.22987 | -6.25737 | 13699 ft | 337 kts | 162° |
| 2026-05-07 20:11 | 53.20766 | -6.24366 | 14513 ft | 341 kts | 162° |
| 2026-05-07 20:12 | 53.18487 | -6.22963 | 15307 ft | 345 kts | 162° |
| 2026-05-07 20:12 | 53.16171 | -6.21540 | 16080 ft | 349 kts | 162° |
| 2026-05-07 20:12 | 53.13831 | -6.20104 | 16846 ft | 352 kts | 162° |
| 2026-05-07 20:12 | 53.11375 | -6.18601 | 17676 ft | 356 kts | 163° |
| 2026-05-07 20:13 | 53.08896 | -6.17084 | 18432 ft | 359 kts | 163° |
| 2026-05-07 20:13 | 53.06389 | -6.15555 | 19201 ft | 362 kts | 163° |
| 2026-05-07 20:13 | 53.03905 | -6.14040 | 19907 ft | 366 kts | 163° |
| 2026-05-07 20:13 | 53.01264 | -6.12431 | 20623 ft | 370 kts | 163° |
| 2026-05-07 20:14 | 52.98589 | -6.10804 | 21316 ft | 374 kts | 163° |
| 2026-05-07 20:14 | 52.95804 | -6.09113 | 22016 ft | 377 kts | 162° |
| 2026-05-07 20:14 | 52.93051 | -6.07443 | 22684 ft | 381 kts | 162° |
| 2026-05-07 20:14 | 52.90255 | -6.05748 | 23337 ft | 385 kts | 162° |
| 2026-05-07 20:15 | 52.87563 | -6.04120 | 23959 ft | 388 kts | 162° |
| 2026-05-07 20:15 | 52.84697 | -6.02387 | 24590 ft | 391 kts | 162° |
| 2026-05-07 20:15 | 52.81725 | -6.00592 | 25204 ft | 395 kts | 162° |
| 2026-05-07 20:15 | 52.78709 | -5.98776 | 25781 ft | 399 kts | 162° |
| 2026-05-07 20:16 | 52.75882 | -5.97075 | 26289 ft | 403 kts | 162° |
| 2026-05-07 20:16 | 52.72934 | -5.95303 | 26813 ft | 406 kts | 162° |
| 2026-05-07 20:16 | 52.70075 | -5.93587 | 27311 ft | 409 kts | 162° |
| 2026-05-07 20:16 | 52.67292 | -5.91919 | 27763 ft | 412 kts | 162° |
| 2026-05-07 20:17 | 52.64531 | -5.90267 | 28187 ft | 415 kts | 162° |
| 2026-05-07 20:17 | 52.61775 | -5.88620 | 28616 ft | 418 kts | 162° |
| 2026-05-07 20:17 | 52.58947 | -5.86932 | 29055 ft | 420 kts | 162° |
| 2026-05-07 20:17 | 52.56110 | -5.85240 | 29599 ft | 419 kts | 162° |
| 2026-05-07 20:18 | 52.53276 | -5.83553 | 30194 ft | 417 kts | 162° |
| 2026-05-07 20:18 | 52.50382 | -5.81833 | 30794 ft | 415 kts | 162° |
| 2026-05-07 20:18 | 52.47477 | -5.80112 | 31326 ft | 414 kts | 162° |
| 2026-05-07 20:18 | 52.44606 | -5.78411 | 31821 ft | 413 kts | 162° |
| 2026-05-07 20:19 | 52.41819 | -5.76761 | 32280 ft | 412 kts | 162° |
| 2026-05-07 20:19 | 52.38887 | -5.75134 | 32728 ft | 411 kts | 165° |
| 2026-05-07 20:19 | 52.35953 | -5.73709 | 33155 ft | 411 kts | 165° |
| 2026-05-07 20:19 | 52.32960 | -5.72253 | 33584 ft | 410 kts | 165° |
| 2026-05-07 20:20 | 52.30058 | -5.70843 | 33920 ft | 411 kts | 165° |
| 2026-05-07 20:20 | 52.27111 | -5.69414 | 34235 ft | 413 kts | 165° |
| 2026-05-07 20:20 | 52.24182 | -5.67879 | 34509 ft | 415 kts | 162° |
| 2026-05-07 20:20 | 52.21375 | -5.66110 | 34764 ft | 417 kts | 159° |
| 2026-05-07 20:21 | 52.18644 | -5.64257 | 34963 ft | 419 kts | 159° |
| 2026-05-07 20:21 | 52.13059 | -5.60501 | 34984 ft | 420 kts | 159° |
| 2026-05-07 20:22 | 52.07499 | -5.55776 | 34991 ft | 423 kts | 148° |
| 2026-05-07 20:22 | 52.02451 | -5.48914 | 34997 ft | 427 kts | 135° |
| 2026-05-07 20:23 | 51.98550 | -5.40750 | 35005 ft | 431 kts | 125° |
| 2026-05-07 20:23 | 51.95147 | -5.32235 | 35000 ft | 430 kts | 128° |
| 2026-05-07 20:24 | 51.91377 | -5.24431 | 35002 ft | 428 kts | 134° |
| 2026-05-07 20:24 | 51.87132 | -5.17549 | 35003 ft | 425 kts | 141° |
| 2026-05-07 20:25 | 51.82511 | -5.11457 | 35002 ft | 424 kts | 144° |
| 2026-05-07 20:25 | 51.77800 | -5.05407 | 34997 ft | 424 kts | 144° |
| 2026-05-07 20:26 | 51.73138 | -4.99429 | 35002 ft | 424 kts | 144° |
| 2026-05-07 20:26 | 51.68500 | -4.93500 | 34992 ft | 424 kts | 144° |
| 2026-05-07 20:27 | 51.63749 | -4.87443 | 34995 ft | 424 kts | 144° |
| 2026-05-07 20:27 | 51.59088 | -4.81515 | 35000 ft | 424 kts | 144° |
| 2026-05-07 20:28 | 51.54492 | -4.75686 | 34999 ft | 424 kts | 144° |
| 2026-05-07 20:28 | 51.49823 | -4.69779 | 34995 ft | 424 kts | 144° |
| 2026-05-07 20:29 | 51.45156 | -4.63893 | 34995 ft | 424 kts | 144° |
| 2026-05-07 20:29 | 51.40527 | -4.58069 | 34994 ft | 425 kts | 144° |
| 2026-05-07 20:30 | 51.35804 | -4.52144 | 34997 ft | 424 kts | 144° |
| 2026-05-07 20:30 | 51.31126 | -4.46288 | 35004 ft | 424 kts | 144° |
| 2026-05-07 20:31 | 51.26409 | -4.40399 | 35006 ft | 424 kts | 144° |
| 2026-05-07 20:31 | 51.21722 | -4.34565 | 35001 ft | 424 kts | 145° |
| 2026-05-07 20:32 | 51.17087 | -4.28811 | 34999 ft | 424 kts | 145° |
| 2026-05-07 20:32 | 51.12416 | -4.23029 | 35006 ft | 424 kts | 145° |
| 2026-05-07 20:33 | 51.07776 | -4.17299 | 35005 ft | 424 kts | 145° |
| 2026-05-07 20:33 | 51.03111 | -4.11552 | 34995 ft | 424 kts | 145° |
| 2026-05-07 20:34 | 50.98482 | -4.05864 | 35002 ft | 423 kts | 145° |
| 2026-05-07 20:34 | 50.93824 | -4.00154 | 34986 ft | 423 kts | 145° |
| 2026-05-07 20:35 | 50.89147 | -3.94440 | 34995 ft | 423 kts | 145° |
| 2026-05-07 20:35 | 50.84489 | -3.88762 | 34987 ft | 423 kts | 145° |
| 2026-05-07 20:36 | 50.79831 | -3.83101 | 34990 ft | 423 kts | 145° |
| 2026-05-07 20:36 | 50.75188 | -3.77470 | 34989 ft | 424 kts | 145° |
| 2026-05-07 20:37 | 50.70497 | -3.71796 | 34859 ft | 424 kts | 145° |
| 2026-05-07 20:37 | 50.68177 | -3.68994 | 34584 ft | 422 kts | 145° |
| 2026-05-07 20:37 | 50.65854 | -3.66195 | 34197 ft | 419 kts | 145° |
| 2026-05-07 20:37 | 50.63557 | -3.63427 | 33737 ft | 416 kts | 145° |
| 2026-05-07 20:38 | 50.61221 | -3.60617 | 33204 ft | 414 kts | 145° |
| 2026-05-07 20:38 | 50.58932 | -3.57871 | 32618 ft | 414 kts | 145° |
| 2026-05-07 20:38 | 50.56637 | -3.55121 | 32040 ft | 415 kts | 145° |
| 2026-05-07 20:38 | 50.54272 | -3.52289 | 31410 ft | 415 kts | 144° |
| 2026-05-07 20:39 | 50.51908 | -3.49587 | 30776 ft | 414 kts | 147° |
| 2026-05-07 20:39 | 50.49498 | -3.47129 | 30133 ft | 413 kts | 150° |
| 2026-05-07 20:39 | 50.47035 | -3.44905 | 29452 ft | 413 kts | 153° |
| 2026-05-07 20:39 | 50.44480 | -3.42827 | 28726 ft | 414 kts | 154° |
| 2026-05-07 20:40 | 50.41936 | -3.40765 | 28090 ft | 413 kts | 154° |
| 2026-05-07 20:40 | 50.39395 | -3.38700 | 27606 ft | 408 kts | 154° |
| 2026-05-07 20:40 | 50.36894 | -3.36672 | 27136 ft | 404 kts | 154° |
| 2026-05-07 20:40 | 50.34415 | -3.34668 | 26657 ft | 400 kts | 155° |
| 2026-05-07 20:41 | 50.31967 | -3.32693 | 26171 ft | 396 kts | 155° |
| 2026-05-07 20:41 | 50.29528 | -3.30729 | 25684 ft | 393 kts | 155° |
| 2026-05-07 20:41 | 50.27120 | -3.28791 | 25214 ft | 390 kts | 154° |
| 2026-05-07 20:41 | 50.24693 | -3.26983 | 24730 ft | 386 kts | 159° |
| 2026-05-07 20:42 | 50.22220 | -3.25506 | 24260 ft | 382 kts | 163° |
| 2026-05-07 20:42 | 50.19678 | -3.24349 | 23795 ft | 379 kts | 167° |
| 2026-05-07 20:42 | 50.17118 | -3.23412 | 23328 ft | 376 kts | 168° |
| 2026-05-07 20:42 | 50.14590 | -3.22504 | 22870 ft | 373 kts | 168° |
| 2026-05-07 20:43 | 50.12051 | -3.21595 | 22431 ft | 371 kts | 168° |
| 2026-05-07 20:43 | 50.09452 | -3.20664 | 22005 ft | 374 kts | 168° |
| 2026-05-07 20:43 | 50.06834 | -3.19723 | 21554 ft | 371 kts | 168° |
| 2026-05-07 20:43 | 50.04206 | -3.18778 | 21077 ft | 368 kts | 168° |
| 2026-05-07 20:44 | 50.01754 | -3.17733 | 20613 ft | 366 kts | 160° |
| 2026-05-07 20:44 | 49.99486 | -3.15995 | 20148 ft | 365 kts | 149° |
| 2026-05-07 20:44 | 49.97489 | -3.13615 | 19692 ft | 365 kts | 140° |
| 2026-05-07 20:44 | 49.95645 | -3.10930 | 19235 ft | 362 kts | 138° |
| 2026-05-07 20:45 | 49.93827 | -3.08223 | 18724 ft | 361 kts | 138° |
| 2026-05-07 20:45 | 49.92043 | -3.05567 | 18228 ft | 360 kts | 138° |
| 2026-05-07 20:45 | 49.90226 | -3.02871 | 17739 ft | 358 kts | 138° |
| 2026-05-07 20:45 | 49.88437 | -3.00227 | 17262 ft | 356 kts | 138° |
| 2026-05-07 20:46 | 49.86644 | -2.97584 | 16778 ft | 354 kts | 138° |
| 2026-05-07 20:46 | 49.84866 | -2.94968 | 16297 ft | 352 kts | 138° |
| 2026-05-07 20:46 | 49.83105 | -2.92383 | 15818 ft | 351 kts | 138° |
| 2026-05-07 20:46 | 49.81336 | -2.89790 | 15342 ft | 349 kts | 138° |
| 2026-05-07 20:47 | 49.79597 | -2.87245 | 14873 ft | 347 kts | 138° |
| 2026-05-07 20:47 | 49.77849 | -2.84689 | 14402 ft | 345 kts | 138° |
| 2026-05-07 20:47 | 49.76131 | -2.82180 | 13933 ft | 343 kts | 138° |
| 2026-05-07 20:47 | 49.74384 | -2.79632 | 13466 ft | 341 kts | 138° |
| 2026-05-07 20:48 | 49.72678 | -2.77146 | 13027 ft | 338 kts | 138° |
| 2026-05-07 20:48 | 49.70995 | -2.74695 | 12648 ft | 334 kts | 138° |
| 2026-05-07 20:48 | 49.69311 | -2.72245 | 12263 ft | 330 kts | 138° |
| 2026-05-07 20:48 | 49.67639 | -2.69814 | 11854 ft | 327 kts | 138° |
| 2026-05-07 20:49 | 49.66008 | -2.67446 | 11442 ft | 325 kts | 139° |
| 2026-05-07 20:49 | 49.64376 | -2.65078 | 11030 ft | 322 kts | 139° |
| 2026-05-07 20:49 | 49.62736 | -2.62704 | 10609 ft | 320 kts | 139° |
| 2026-05-07 20:49 | 49.61140 | -2.60394 | 10306 ft | 312 kts | 139° |
| 2026-05-07 20:50 | 49.59552 | -2.58094 | 10180 ft | 298 kts | 139° |
| 2026-05-07 20:50 | 49.58038 | -2.55905 | 10099 ft | 284 kts | 139° |
| 2026-05-07 20:50 | 49.56616 | -2.53851 | 10024 ft | 277 kts | 139° |
| 2026-05-07 20:50 | 49.55194 | -2.51806 | 9686 ft | 278 kts | 139° |
| 2026-05-07 20:51 | 49.53790 | -2.49788 | 9357 ft | 276 kts | 139° |
| 2026-05-07 20:51 | 49.52381 | -2.47763 | 9005 ft | 274 kts | 138° |
| 2026-05-07 20:51 | 49.50966 | -2.45727 | 8650 ft | 272 kts | 138° |
| 2026-05-07 20:51 | 49.49543 | -2.43683 | 8291 ft | 270 kts | 138° |
| 2026-05-07 20:52 | 49.48159 | -2.41696 | 7940 ft | 268 kts | 138° |
| 2026-05-07 20:52 | 49.46811 | -2.39764 | 7594 ft | 267 kts | 138° |
| 2026-05-07 20:52 | 49.45449 | -2.37812 | 7246 ft | 265 kts | 138° |
| 2026-05-07 20:52 | 49.44114 | -2.35899 | 6902 ft | 263 kts | 137° |
| 2026-05-07 20:53 | 49.42788 | -2.34002 | 6571 ft | 261 kts | 139° |
| 2026-05-07 20:53 | 49.41458 | -2.32099 | 6242 ft | 259 kts | 138° |
| 2026-05-07 20:53 | 49.40146 | -2.30222 | 5925 ft | 258 kts | 138° |
| 2026-05-07 20:53 | 49.38835 | -2.28349 | 5606 ft | 257 kts | 138° |
| 2026-05-07 20:54 | 49.37549 | -2.26512 | 5302 ft | 256 kts | 138° |
| 2026-05-07 20:54 | 49.36239 | -2.24643 | 5000 ft | 255 kts | 138° |
| 2026-05-07 20:54 | 49.34959 | -2.22819 | 4599 ft | 247 kts | 137° |
| 2026-05-07 20:54 | 49.33742 | -2.21087 | 4278 ft | 232 kts | 137° |
| 2026-05-07 20:55 | 49.32609 | -2.19475 | 4001 ft | 222 kts | 137° |
| 2026-05-07 20:55 | 49.31466 | -2.17850 | 3721 ft | 221 kts | 137° |
| 2026-05-07 20:55 | 49.30340 | -2.16251 | 3496 ft | 220 kts | 137° |
| 2026-05-07 20:55 | 49.29223 | -2.14665 | 3432 ft | 217 kts | 137° |
| 2026-05-07 20:56 | 49.28163 | -2.13171 | 3384 ft | 203 kts | 137° |
| 2026-05-07 20:56 | 49.27152 | -2.11757 | 3341 ft | 190 kts | 137° |
| 2026-05-07 20:56 | 49.26196 | -2.10425 | 3407 ft | 185 kts | 137° |
| 2026-05-07 20:56 | 49.25235 | -2.09084 | 3396 ft | 185 kts | 137° |
| 2026-05-07 20:57 | 49.24285 | -2.07759 | 3368 ft | 185 kts | 137° |
| 2026-05-07 20:57 | 49.23342 | -2.06441 | 3339 ft | 181 kts | 137° |
| 2026-05-07 20:57 | 49.22426 | -2.05163 | 3304 ft | 175 kts | 137° |
| 2026-05-07 20:57 | 49.21533 | -2.03919 | 3278 ft | 175 kts | 137° |
| 2026-05-07 20:58 | 49.20636 | -2.02671 | 3254 ft | 175 kts | 137° |
| 2026-05-07 20:58 | 49.19740 | -2.01425 | 3229 ft | 175 kts | 137° |
| 2026-05-07 20:58 | 49.18831 | -2.00165 | 3205 ft | 175 kts | 137° |
| 2026-05-07 20:58 | 49.17928 | -1.98912 | 3177 ft | 173 kts | 136° |
| 2026-05-07 20:59 | 49.17271 | -1.97414 | 3133 ft | 175 kts | 105° |
| 2026-05-07 20:59 | 49.17424 | -1.95616 | 3111 ft | 174 kts | 65° |
| 2026-05-07 20:59 | 49.18351 | -1.94390 | 3102 ft | 180 kts | 31° |
| 2026-05-07 20:59 | 49.19493 | -1.93519 | 3033 ft | 180 kts | 30° |
| 2026-05-07 21:00 | 49.20629 | -1.92651 | 2903 ft | 180 kts | 30° |
| 2026-05-07 21:00 | 49.21758 | -1.91822 | 2776 ft | 181 kts | 24° |
| 2026-05-07 21:00 | 49.23020 | -1.91770 | 2629 ft | 187 kts | 343° |
| 2026-05-07 21:00 | 49.24013 | -1.92982 | 2503 ft | 187 kts | 301° |
| 2026-05-07 21:01 | 49.24258 | -1.94885 | 2368 ft | 181 kts | 258° |
| 2026-05-07 21:01 | 49.23817 | -1.96773 | 2254 ft | 178 kts | 242° |
| 2026-05-07 21:01 | 49.23240 | -1.98555 | 2123 ft | 178 kts | 239° |
| 2026-05-07 21:01 | 49.22718 | -2.00253 | 2007 ft | 166 kts | 245° |
| 2026-05-07 21:02 | 49.22396 | -2.01812 | 1956 ft | 143 kts | 252° |
| 2026-05-07 21:02 | 49.22194 | -2.03273 | 1973 ft | 140 kts | 256° |
| 2026-05-07 21:02 | 49.22039 | -2.04747 | 1986 ft | 140 kts | 258° |
| 2026-05-07 21:02 | 49.21910 | -2.06222 | 1862 ft | 140 kts | 259° |
| 2026-05-07 21:03 | 49.21788 | -2.07706 | 1679 ft | 139 kts | 259° |
| 2026-05-07 21:03 | 49.21667 | -2.09167 | 1497 ft | 138 kts | 259° |
| 2026-05-07 21:03 | 49.21545 | -2.10616 | 1312 ft | 138 kts | 260° |
| 2026-05-07 21:03 | 49.21422 | -2.12076 | 1128 ft | 138 kts | 261° |
| 2026-05-07 21:04 | 49.21300 | -2.13530 | 943 ft | 137 kts | 260° |
| 2026-05-07 21:04 | 49.21178 | -2.14974 | 752 ft | 137 kts | 261° |
| 2026-05-07 21:04 | 49.21057 | -2.16402 | 570 ft | 138 kts | 262° |
| 2026-05-07 21:04 | 49.20939 | -2.17848 | 383 ft | 137 kts | 262° |
| 2026-05-07 21:05 | 49.20822 | -2.19288 | 284 ft | 118 kts | 259° |
| 2026-05-07 21:05 | 49.20751 | -2.20124 | 274 ft | 52 kts | 262° |
| 2026-05-07 21:05 | 49.20728 | -2.20372 | 277 ft | 6 kts | 262° |
| 2026-05-07 21:05 | 49.20720 | -2.20458 | 276 ft | 10 kts | 262° |
| 2026-05-07 21:06 | 49.20708 | -2.20596 | 272 ft | 15 kts | 262° |
| 2026-05-07 21:06 | 49.20634 | -2.20670 | 269 ft | 17 kts | 128° |
| 2026-05-07 21:06 | 49.20618 | -2.20504 | 273 ft | 14 kts | 101° |
| 2026-05-07 21:06 | 49.20596 | -2.20359 | 275 ft | 13 kts | 107° |
| 2026-05-07 21:07 | 49.20564 | -2.20211 | 275 ft | 15 kts | 109° |
| 2026-05-07 21:07 | 49.20532 | -2.20058 | 274 ft | 14 kts | 107° |
| 2026-05-07 21:07 | 49.20526 | -2.19936 | 272 ft | 10 kts | 43° |
| 2026-05-07 21:07 | 49.20597 | -2.19888 | 272 ft | 12 kts | 65° |
| 2026-05-07 21:08 | 49.20614 | -2.19757 | 273 ft | 12 kts | 86° |
| 2026-05-07 21:08 | 49.20612 | -2.19677 | 275 ft | 6 kts | 124° |
| 2026-05-07 21:08 | 49.20574 | -2.19641 | 276 ft | 4 kts | 161° |
| 2026-05-07 21:08 | 49.20559 | -2.19633 | 276 ft | 0 kts | 160° |